Terminal Aerodrome Forecast
Issued by NWS

Home | Current Version | Previous Version | Text Only | Print | Product List | Glossary On
Versions: 1 2 3 4 5 6 7 8 9 10 11 12 13 14 15 16 17 18 19 20 21 22 23
000
FTUS45 KREV 202300
TAFTVL
TAF
KTVL 202328Z 2100/2124 20014G27KT P6SM SCT045 BKN150
     FM210200 20012G22KT P6SM VCSH SCT035 BKN050
      TEMPO 2103/2106 20009KT 3SM SHRA BKN025
     FM210700 20008KT P6SM SCT090
     FM211100 VRB03KT P6SM SCT080 BKN150
     FM211900 03007KT P6SM FEW080 BKN150=

USA.gov is the U.S. government's official web portal to all federal, state and local government web resources and services.